Holts Summit, Missouri
Current Conditions -  °F | °C
As of 3:53 PM on Friday 24 Oct 2014 (Local Time) from KJEF Reporting Station
Few Clouds Few Clouds  
Wind Chill: 74°   Ceiling: Unl
Heat Index: 74°   Visibility: 10mi
Dew Point: 59°   Wind: 9mph
Humidity: 59%   Direction: 180°S
Pressure: 29.99"   Gusts: NA
Location:  38.64°N, 92.12°W
Report Text: KJEF 242053Z 18008KT 10SM FEW050 23/15 A2999 RMK AO2 SLP146 T02330150 56028
Loading
Personal Weather Stations






























Interactive Weather Map
Tropical Storm Tracking
New forecast layout! Learn more

10-Day Weather Forecast

Advertisements
Track Severe Weather on mobile